Time;durP1;ratioP1;P1;durP2;ratioP2;P2;SDS_P1;SDS_P2;PMS_P1;PMS_P2;Temp;Humidity;BMP_temperature;BMP_pressure;BME280_temperature;BME280_humidity;BME280_pressure;Samples;Min_cycle;Max_cycle;Signal;HPM_P1;HPM_P2
2021/05/03 00:02:01;;;;;;;7.38;5.38;;;14.00;58.60;;;;;;10020279;28;20049;-74
2021/05/03 00:06:56;;;;;;;7.10;5.18;;;13.90;58.70;;;;;;10019801;28;20258;-75
2021/05/03 00:11:50;;;;;;;8.38;5.53;;;13.90;59.00;;;;;;10019596;28;20455;-74
2021/05/03 00:16:43;;;;;;;8.32;5.95;;;13.70;59.20;;;;;;10019758;28;20049;-74
2021/05/03 00:21:36;;;;;;;7.65;5.65;;;13.80;59.20;;;;;;10019286;28;20056;-75
2021/05/03 00:26:31;;;;;;;7.93;5.72;;;13.70;59.50;;;;;;10001364;28;20508;-75
2021/05/03 00:31:25;;;;;;;9.23;6.13;;;13.90;59.40;;;;;;10018804;28;20058;-75
2021/05/03 00:36:18;;;;;;;9.90;6.22;;;13.80;59.40;;;;;;10018713;28;20409;-73
2021/05/03 00:41:12;;;;;;;10.68;6.43;;;13.70;59.70;;;;;;10001274;28;20064;-75
2021/05/03 00:46:07;;;;;;;7.93;6.15;;;13.70;60.00;;;;;;10017059;28;20053;-76
2021/05/03 00:51:01;;;;;;;8.68;5.97;;;13.70;60.20;;;;;;10017915;28;20116;-74
2021/05/03 00:55:54;;;;;;;10.00;6.25;;;13.60;60.00;;;;;;10017087;28;20045;-82
2021/05/03 01:00:48;;;;;;;9.43;6.65;;;13.90;60.60;;;;;;10050414;28;20065;-82
2021/05/03 01:05:42;;;;;;;8.52;5.63;;;14.20;59.40;;;;;;10018247;28;20497;-82
2021/05/03 01:10:36;;;;;;;9.80;6.43;;;14.30;58.80;;;;;;10016886;28;20543;-82
2021/05/03 01:15:31;;;;;;;5.47;3.63;;;14.40;59.20;;;;;;10018285;28;20053;-83
2021/05/03 01:20:26;;;;;;;11.38;6.88;;;14.40;59.50;;;;;;10017302;28;20060;-82
2021/05/03 01:25:20;;;;;;;11.35;7.13;;;14.50;57.70;;;;;;10019537;28;20100;-80
2021/05/03 01:30:15;;;;;;;10.80;7.50;;;14.60;57.60;;;;;;10016053;28;20076;-83
2021/05/03 01:35:10;;;;;;;10.75;6.95;;;14.60;58.50;;;;;;10016597;28;20103;-82
2021/05/03 01:40:05;;;;;;;11.50;6.47;;;14.70;58.20;;;;;;10017690;28;20100;-78
2021/05/03 01:45:03;;;;;;;9.10;5.97;;;14.50;57.60;;;;;;10017295;28;20436;-78
2021/05/03 01:49:57;;;;;;;10.40;7.20;;;14.50;58.50;;;;;;10017149;28;20046;-77
2021/05/03 01:54:51;;;;;;;10.25;7.22;;;14.40;58.50;;;;;;10016070;28;20049;-80
2021/05/03 01:59:47;;;;;;;9.93;7.00;;;14.40;58.40;;;;;;10016912;28;20057;-78
2021/05/03 02:04:42;;;;;;;9.45;7.00;;;13.60;57.10;;;;;;10020078;28;20050;-79
2021/05/03 02:09:36;;;;;;;12.73;6.40;;;14.50;58.20;;;;;;10055628;28;20050;-81
2021/05/03 02:14:30;;;;;;;9.68;6.60;;;14.50;58.30;;;;;;10023208;28;20053;-82
2021/05/03 02:19:23;;;;;;;8.40;4.95;;;14.30;58.30;;;;;;10022441;28;20050;-81
2021/05/03 02:24:18;;;;;;;9.50;6.10;;;14.10;59.10;;;;;;10022561;28;20053;-80
2021/05/03 02:29:11;;;;;;;8.23;6.47;;;14.30;58.60;;;;;;10023849;28;20047;-85
2021/05/03 02:34:05;;;;;;;6.80;3.80;;;14.20;58.40;;;;;;10022468;28;20062;-86
2021/05/03 02:38:59;;;;;;;7.47;5.22;;;14.10;58.70;;;;;;10006118;28;20547;-85
2021/05/03 02:43:53;;;;;;;7.35;5.40;;;14.10;58.30;;;;;;10023320;28;20049;-84
2021/05/03 02:48:47;;;;;;;7.20;5.18;;;14.20;58.00;;;;;;10023480;28;20617;-87
2021/05/03 02:53:41;;;;;;;9.52;5.60;;;14.30;57.70;;;;;;10006234;28;20049;-87
2021/05/03 02:58:34;;;;;;;9.65;5.70;;;14.20;57.30;;;;;;10022769;28;20091;-88
2021/05/03 03:03:29;;;;;;;6.78;4.60;;;14.10;57.30;;;;;;10022418;28;20136;-81
2021/05/03 03:08:22;;;;;;;9.85;5.40;;;14.20;57.10;;;;;;10020528;28;20084;-80
2021/05/03 03:13:16;;;;;;;4.45;3.80;;;14.20;56.50;;;;;;10020343;28;20050;-81
2021/05/03 03:18:10;;;;;;;8.90;5.57;;;14.30;57.00;;;;;;10019848;28;20496;-82
2021/05/03 03:23:05;;;;;;;9.00;6.00;;;14.50;56.30;;;;;;10020121;28;20050;-81
2021/05/03 03:27:59;;;;;;;9.10;6.03;;;14.40;56.00;;;;;;10019899;28;20056;-80
2021/05/03 03:32:54;;;;;;;9.52;5.82;;;;;;;;;;10019390;28;20416;-80
2021/05/03 03:37:49;;;;;;;10.35;6.68;;;15.10;56.20;;;;;;10003648;28;20430;-81
2021/05/03 03:42:45;;;;;;;6.13;4.75;;;;;;;;;;10019736;28;20133;-83
2021/05/03 03:47:39;;;;;;;6.22;4.28;;;14.00;56.40;;;;;;10020592;28;20049;-79
2021/05/03 03:52:33;;;;;;;10.00;6.05;;;16.10;55.10;;;;;;10020410;28;20390;-77
2021/05/03 03:57:26;;;;;;;7.80;5.05;;;15.70;56.30;;;;;;10002361;28;20133;-77
2021/05/03 04:02:21;;;;;;;5.63;4.22;;;13.10;53.30;;;;;;10019728;28;20073;-77
2021/05/03 04:07:19;;;;;;;7.45;5.30;;;13.00;53.70;;;;;;10018495;28;20408;-81
2021/05/03 04:22:48;;;;;;;10.48;6.13;;;13.90;56.90;;;;;;10019024;28;20054;-77
2021/05/03 04:27:41;;;;;;;10.43;5.88;;;16.40;57.80;;;;;;10016768;28;20143;-78
2021/05/03 04:32:37;;;;;;;9.27;5.78;;;14.30;55.50;;;;;;10001014;28;20062;-77
2021/05/03 04:37:30;;;;;;;6.47;4.85;;;14.10;53.90;;;;;;10018147;28;20054;-78
2021/05/03 04:42:25;;;;;;;11.05;6.40;;;15.10;54.50;;;;;;10050254;28;20049;-83
2021/05/03 04:47:18;;;;;;;10.07;6.30;;;15.60;54.80;;;;;;10018890;28;20123;-86
2021/05/03 04:52:14;;;;;;;12.48;6.03;;;13.60;53.20;;;;;;10018142;28;20080;-84
2021/05/03 04:57:09;;;;;;;10.85;6.80;;;;;;;;;;10016499;28;20562;-80
2021/05/03 05:02:03;;;;;;;9.73;6.28;;;13.70;54.00;;;;;;10048985;28;20496;-79
2021/05/03 05:06:59;;;;;;;10.57;5.15;;;13.20;54.00;;;;;;10017472;28;20054;-78
2021/05/03 05:11:54;;;;;;;11.50;6.40;;;15.70;56.10;;;;;;10017110;28;20435;-78
2021/05/03 05:16:49;;;;;;;10.55;5.90;;;12.80;54.20;;;;;;10015395;28;20048;-79
2021/05/03 05:21:42;;;;;;;7.30;4.78;;;13.00;55.30;;;;;;10015626;28;20053;-81
2021/05/03 05:26:36;;;;;;;10.18;5.60;;;;;;;;;;10016781;28;20408;-81
2021/05/03 05:31:31;;;;;;;6.30;5.05;;;13.10;55.00;;;;;;10046585;28;20066;-81
2021/05/03 05:36:25;;;;;;;5.82;3.45;;;13.00;55.30;;;;;;10015511;28;20046;-81
2021/05/03 05:41:21;;;;;;;6.38;4.03;;;;;;;;;;10023463;28;20068;-80
2021/05/03 05:46:18;;;;;;;8.68;4.57;;;14.20;54.20;;;;;;10025963;28;20042;-79
2021/05/03 05:51:13;;;;;;;5.18;3.70;;;;;;;;;;10023628;28;20064;-79
2021/05/03 05:56:07;;;;;;;7.53;4.82;;;;;;;;;;10022803;28;20061;-79
2021/05/03 06:01:01;;;;;;;5.18;3.85;;;14.60;56.20;;;;;;10023580;28;20045;-81
2021/05/03 06:05:59;;;;;;;6.50;4.68;;;13.60;54.20;;;;;;10055251;28;20046;-81
2021/05/03 06:10:54;;;;;;;8.85;5.60;;;13.80;55.50;;;;;;10004854;28;20057;-80
2021/05/03 06:15:48;;;;;;;7.95;5.18;;;;;;;;;;10021971;28;20041;-78
2021/05/03 06:20:43;;;;;;;9.13;4.47;;;;;;;;;;10052603;28;20042;-80
2021/05/03 06:25:36;;;;;;;7.10;4.88;;;14.40;55.60;;;;;;10019969;28;20056;-78
2021/05/03 06:30:35;;;;;;;6.43;4.90;;;15.10;55.80;;;;;;10020995;28;20061;-81
2021/05/03 06:35:32;;;;;;;8.38;5.45;;;;;;;;;;10020170;28;20108;-80
2021/05/03 06:40:28;;;;;;;8.88;5.25;;;13.80;53.30;;;;;;10020756;28;20465;-79
2021/05/03 06:45:22;;;;;;;10.55;5.40;;;14.40;55.20;;;;;;10035790;28;20481;-78
2021/05/03 06:50:21;;;;;;;9.40;5.88;;;14.00;53.40;;;;;;10020091;28;20095;-79
2021/05/03 06:55:16;;;;;;;10.00;5.63;;;13.20;52.50;;;;;;10018616;28;20187;-80
2021/05/03 07:00:17;;;;;;;10.73;5.93;;;;;;;;;;10018705;28;20053;-80
2021/05/03 07:05:12;;;;;;;7.63;5.10;;;;;;;;;;10020492;28;20052;-79
2021/05/03 07:10:12;;;;;;;10.48;5.22;;;15.70;54.40;;;;;;10002055;28;20427;-82
2021/05/03 07:15:10;;;;;;;12.50;5.63;;;15.10;53.60;;;;;;10020744;28;20687;-80
2021/05/03 07:20:08;;;;;;;12.05;7.70;;;14.50;53.20;;;;;;10020382;28;20053;-84
2021/05/03 07:25:05;;;;;;;8.68;5.05;;;14.10;52.00;;;;;;10019228;28;20137;-80
2021/05/03 07:30:02;;;;;;;9.32;4.85;;;;;;;;;;10002449;28;20050;-83
2021/05/03 07:34:59;;;;;;;8.20;4.82;;;;;;;;;;10001934;28;20508;-81
2021/05/03 07:39:54;;;;;;;5.78;4.15;;;14.80;51.80;;;;;;10048810;28;20081;-81
2021/05/03 07:44:50;;;;;;;7.53;4.03;;;14.50;51.20;;;;;;10017133;28;20053;-81
2021/05/03 07:49:47;;;;;;;6.82;4.20;;;14.80;51.10;;;;;;10015940;28;20137;-79
2021/05/03 07:54:42;;;;;;;6.78;3.60;;;;;;;;;;10017044;28;20131;-79
2021/05/03 07:59:35;;;;;;;6.90;2.95;;;14.10;49.80;;;;;;10018195;28;20054;-81
2021/05/03 08:04:29;;;;;;;5.35;2.80;;;;;;;;;;10016252;28;20054;-76
2021/05/03 08:09:26;;;;;;;7.38;2.80;;;13.90;47.30;;;;;;10000019;28;20049;-81
2021/05/03 08:14:22;;;;;;;8.45;2.50;;;;;;;;;;10016910;28;20056;-79
2021/05/03 08:19:17;;;;;;;3.25;2.53;;;14.50;48.40;;;;;;10014982;28;20096;-82
2021/05/03 08:24:21;;;;;;;5.88;3.33;;;14.40;47.60;;;;;;9999019;28;20061;-79
2021/05/03 08:29:17;;;;;;;9.90;3.35;;;;;;;;;;9981837;28;20073;-74
2021/05/03 08:34:11;;;;;;;4.43;2.50;;;16.00;48.70;;;;;;10015897;28;20060;-75
2021/05/03 08:39:05;;;;;;;5.18;3.20;;;13.10;47.10;;;;;;10014514;28;20096;-75
2021/05/03 08:44:01;;;;;;;3.65;2.53;;;;;;;;;;10015648;28;20464;-75
2021/05/03 08:49:01;;;;;;;7.70;2.58;;;;;;;;;;9999020;28;20058;-77
2021/05/03 08:54:00;;;;;;;6.90;2.50;;;;;;;;;;10016542;28;20053;-75
2021/05/03 08:58:57;;;;;;;4.55;2.38;;;13.60;45.90;;;;;;10016767;28;20469;-76
2021/05/03 09:03:52;;;;;;;4.55;2.20;;;;;;;;;;10016560;28;20485;-76
2021/05/03 09:09:02;;;;;;;4.45;2.15;;;14.30;44.40;;;;;;10016976;28;20052;-75
2021/05/03 09:14:08;;;;;;;4.63;2.23;;;15.20;44.70;;;;;;10019347;28;20117;-78
2021/05/03 09:19:03;;;;;;;5.13;2.42;;;15.10;45.80;;;;;;10023927;28;20115;-77
2021/05/03 09:24:08;;;;;;;3.13;2.33;;;14.80;44.00;;;;;;10022371;28;20057;-77
2021/05/03 09:29:33;;;;;;;4.15;2.50;;;15.20;45.30;;;;;;10023522;28;20056;-77
2021/05/03 09:34:33;;;;;;;6.13;2.90;;;;;;;;;;10022218;28;20209;-79
2021/05/03 09:39:32;;;;;;;3.83;2.63;;;13.80;42.80;;;;;;10023626;28;20077;-80
2021/05/03 09:44:28;;;;;;;5.85;3.30;;;14.30;43.80;;;;;;10025538;28;20045;-84
2021/05/03 09:49:24;;;;;;;5.10;3.28;;;;;;;;;;10024412;28;20132;-78
2021/05/03 09:54:21;;;;;;;7.80;3.10;;;;;;;;;;10021548;28;20049;-78
2021/05/03 09:59:43;;;;;;;6.63;2.50;;;14.10;40.50;;;;;;10023489;28;20046;-84
2021/05/03 10:04:52;;;;;;;3.90;2.40;;;16.00;41.70;;;;;;10006223;28;20061;-80
2021/05/03 10:09:49;;;;;;;4.57;2.72;;;;;;;;;;10023525;28;20115;-80
2021/05/03 10:14:48;;;;;;;3.40;2.20;;;15.50;40.90;;;;;;10022214;28;20050;-80
2021/05/03 10:19:50;;;;;;;3.08;2.30;;;15.90;42.50;;;;;;10020742;28;20449;-78
2021/05/03 10:24:56;;;;;;;4.95;2.38;;;14.60;39.00;;;;;;10019532;28;20052;-79
2021/05/03 10:30:07;;;;;;;4.18;2.20;;;;;;;;;;10020050;28;20348;-83
2021/05/03 10:35:29;;;;;;;4.78;2.80;;;15.00;40.20;;;;;;10001604;28;20054;-79
2021/05/03 10:40:50;;;;;;;6.13;2.30;;;15.20;40.70;;;;;;10019898;28;20443;-82
2021/05/03 10:52:04;;;;;;;5.95;2.45;;;14.60;40.50;;;;;;10042060;28;20471;-81
2021/05/03 10:57:02;;;;;;;4.87;2.43;;;;;;;;;;10025887;28;20511;-81
2021/05/03 11:02:10;;;;;;;4.15;2.55;;;15.80;39.00;;;;;;10059966;28;20111;-76
2021/05/03 11:07:31;;;;;;;3.75;2.47;;;16.30;40.10;;;;;;10017283;28;20545;-82
2021/05/03 11:12:36;;;;;;;4.57;2.20;;;17.10;39.60;;;;;;10014821;28;20053;-82
2021/05/03 11:17:36;;;;;;;2.90;2.15;;;;;;;;;;10046007;28;20071;-79
2021/05/03 11:23:06;;;;;;;6.05;2.10;;;15.00;38.40;;;;;;10027701;28;20515;-86
2021/05/03 11:35:36;;;;;;;1.85;1.75;;;17.70;37.10;;;;;;9957821;28;20123;-83
2021/05/03 11:40:58;;;;;;;6.30;2.28;;;17.60;37.10;;;;;;10033534;28;20068;-82
2021/05/03 11:46:08;;;;;;;4.95;2.00;;;18.10;36.40;;;;;;10063827;28;20348;-82
2021/05/03 11:51:15;;;;;;;3.05;2.00;;;17.60;37.00;;;;;;10017722;28;20056;-85
2021/05/03 11:56:24;;;;;;;4.20;1.70;;;15.80;36.10;;;;;;10042672;28;20053;-75
2021/05/03 12:01:19;;;;;;;2.28;1.83;;;16.00;35.40;;;;;;10057366;28;20048;-75
2021/05/03 12:06:30;;;;;;;3.53;2.08;;;;;;;;;;10021356;28;20565;-75
2021/05/03 12:11:25;;;;;;;4.93;2.00;;;19.50;35.70;;;;;;10057361;28;20041;-74
2021/05/03 12:16:32;;;;;;;2.58;1.92;;;18.40;35.70;;;;;;10039488;28;20045;-73
2021/05/03 12:21:26;;;;;;;2.80;1.80;;;18.60;33.50;;;;;;10039772;28;20045;-73
2021/05/03 12:26:20;;;;;;;2.83;1.90;;;18.50;33.80;;;;;;10056032;28;20567;-73
2021/05/03 12:31:16;;;;;;;2.88;1.90;;;18.90;35.30;;;;;;10038968;28;20484;-73
2021/05/03 12:36:12;;;;;;;2.72;2.17;;;19.00;34.60;;;;;;10055668;28;20494;-73
2021/05/03 12:41:05;;;;;;;2.45;1.58;;;19.30;34.50;;;;;;10039236;28;20065;-74
2021/05/03 12:46:04;;;;;;;3.35;1.85;;;18.70;33.30;;;;;;10038775;28;20060;-76
2021/05/03 12:51:15;;;;;;;4.75;2.10;;;18.10;32.50;;;;;;10054827;28;20480;-78
2021/05/03 12:56:16;;;;;;;4.15;1.90;;;18.10;32.90;;;;;;10022497;28;20542;-77
2021/05/03 13:01:29;;;;;;;2.42;1.70;;;;;;;;;;10061835;28;20126;-77
2021/05/03 13:06:42;;;;;;;4.43;1.58;;;18.60;32.50;;;;;;10055952;28;20067;-77
2021/05/03 13:23:59;;;;;;;2.17;1.60;;;18.70;30.60;;;;;;10057257;28;20383;-78
2021/05/03 13:29:04;;;;;;;3.75;1.75;;;18.30;32.50;;;;;;10023529;28;20140;-78
2021/05/03 13:33:59;;;;;;;6.80;2.60;;;17.70;32.00;;;;;;10037251;28;20056;-80
2021/05/03 13:38:56;;;;;;;2.55;1.88;;;18.90;30.90;;;;;;10056436;28;20049;-81
2021/05/03 13:43:50;;;;;;;6.07;1.58;;;;;;;;;;10054768;28;20060;-78
2021/05/03 13:48:45;;;;;;;2.78;2.15;;;;;;;;;;10055652;28;20049;-77
2021/05/03 13:53:39;;;;;;;3.90;1.80;;;18.80;29.20;;;;;;10055809;28;20562;-79
2021/05/03 13:58:35;;;;;;;3.33;1.95;;;20.10;30.80;;;;;;10040400;28;20463;-77
2021/05/03 14:03:30;;;;;;;4.72;1.70;;;21.50;31.40;;;;;;10043346;28;20460;-76
2021/05/03 14:08:24;;;;;;;7.05;1.83;;;17.80;30.00;;;;;;10062925;28;20049;-79
2021/05/03 14:13:21;;;;;;;2.63;1.70;;;20.80;30.90;;;;;;10046741;28;20124;-79
2021/05/03 14:18:20;;;;;;;2.50;1.88;;;;;;;;;;10045331;28;20049;-77
2021/05/03 14:23:15;;;;;;;3.90;1.58;;;17.00;29.90;;;;;;10061880;28;20052;-73
2021/05/03 14:28:13;;;;;;;6.45;1.63;;;17.40;29.90;;;;;;10041993;28;20053;-75
2021/05/03 14:33:14;;;;;;;4.13;1.90;;;17.60;29.20;;;;;;10021926;28;20049;-74
2021/05/03 14:38:10;;;;;;;3.63;1.88;;;19.00;30.30;;;;;;10024470;28;20045;-75
2021/05/03 14:43:06;;;;;;;4.78;2.13;;;19.10;29.80;;;;;;10041004;28;20521;-73
2021/05/03 14:48:03;;;;;;;6.63;2.28;;;17.50;29.70;;;;;;10060124;28;20127;-72
2021/05/03 14:58:09;;;;;;;2.63;1.90;;;19.20;31.40;;;;;;10059981;28;20045;-75
2021/05/03 15:03:06;;;;;;;2.30;1.67;;;16.40;29.20;;;;;;10061577;28;20049;-74
2021/05/03 15:08:00;;;;;;;2.22;1.73;;;;;;;;;;10061507;28;20060;-72
2021/05/03 15:12:55;;;;;;;3.00;1.70;;;18.30;30.10;;;;;;10041862;28;20103;-74
2021/05/03 15:23:06;;;;;;;6.90;2.20;;;16.60;29.80;;;;;;9987821;28;20061;-74
2021/05/03 15:28:14;;;;;;;109.65;56.38;;;;;;;;;;10059910;28;20061;-75
2021/05/03 15:33:34;;;;;;;6.20;3.45;;;18.90;32.40;;;;;;10058068;28;20105;-74
2021/05/03 15:38:29;;;;;;;2.92;2.38;;;16.70;31.10;;;;;;10028037;28;20185;-73
2021/05/03 15:43:25;;;;;;;3.88;2.30;;;;;;;;;;10042465;28;20137;-73
2021/05/03 15:48:23;;;;;;;6.18;2.58;;;17.20;30.20;;;;;;10025797;28;20071;-73
2021/05/03 15:53:16;;;;;;;5.47;1.98;;;19.40;31.50;;;;;;10041814;28;20439;-74
2021/05/03 15:58:13;;;;;;;4.50;1.92;;;17.20;30.70;;;;;;10041374;28;20098;-73
2021/05/03 16:03:06;;;;;;;2.28;2.08;;;17.10;30.30;;;;;;10059155;28;20507;-73
2021/05/03 16:08:00;;;;;;;3.47;2.25;;;19.40;33.00;;;;;;10041436;28;20045;-73
2021/05/03 16:12:56;;;;;;;5.18;1.85;;;17.00;31.90;;;;;;10058802;28;20037;-74
2021/05/03 16:17:52;;;;;;;3.38;1.90;;;17.20;32.00;;;;;;10059061;28;20045;-77
2021/05/03 16:22:49;;;;;;;4.18;2.00;;;16.00;31.30;;;;;;10043560;28;20045;-79
2021/05/03 16:27:45;;;;;;;5.43;2.63;;;16.60;30.90;;;;;;10059378;28;20049;-78
2021/05/03 16:32:39;;;;;;;5.18;2.08;;;16.40;32.10;;;;;;10039750;28;20069;-76
2021/05/03 16:37:32;;;;;;;2.47;1.90;;;16.60;31.20;;;;;;10057872;28;20055;-76
2021/05/03 16:42:25;;;;;;;3.95;2.42;;;18.20;33.50;;;;;;10057749;28;20050;-77
2021/05/03 16:47:19;;;;;;;5.03;1.92;;;19.50;34.20;;;;;;10023849;28;20500;-77
2021/05/03 16:52:15;;;;;;;4.18;2.40;;;;;;;;;;10057644;28;20041;-77
2021/05/03 16:57:08;;;;;;;4.47;1.95;;;16.70;32.20;;;;;;10057492;28;20060;-78
2021/05/03 17:02:03;;;;;;;4.00;2.10;;;16.30;32.10;;;;;;10057354;28;20453;-74
2021/05/03 17:06:57;;;;;;;5.03;2.13;;;18.60;34.30;;;;;;10056833;28;20500;-72
2021/05/03 17:11:51;;;;;;;4.68;2.42;;;19.30;34.80;;;;;;10039046;28;20504;-73
2021/05/03 17:16:46;;;;;;;5.85;2.03;;;15.60;33.00;;;;;;10057155;28;20104;-73
2021/05/03 17:21:41;;;;;;;3.33;2.13;;;16.60;33.50;;;;;;10022332;28;20075;-74
2021/05/03 17:26:40;;;;;;;6.18;2.20;;;18.10;33.50;;;;;;10039173;28;20128;-73
2021/05/03 17:31:33;;;;;;;2.78;2.10;;;18.40;33.70;;;;;;10056800;28;20045;-72
2021/05/03 17:36:26;;;;;;;4.82;1.95;;;17.40;34.20;;;;;;10056515;28;20099;-76
2021/05/03 17:41:20;;;;;;;4.80;1.85;;;16.40;32.80;;;;;;10042451;28;20050;-76
2021/05/03 17:46:14;;;;;;;4.85;1.95;;;15.40;33.80;;;;;;10060864;28;20106;-76
2021/05/03 17:51:08;;;;;;;3.22;2.13;;;15.30;34.10;;;;;;10062984;28;20045;-75
2021/05/03 17:56:01;;;;;;;2.28;1.52;;;16.00;34.70;;;;;;10063858;28;20041;-76
2021/05/03 18:00:57;;;;;;;2.97;2.28;;;16.20;33.40;;;;;;10063537;28;20057;-76
2021/05/03 18:05:52;;;;;;;2.92;1.90;;;;;;;;;;10064717;28;20163;-74
2021/05/03 18:10:47;;;;;;;4.00;2.05;;;16.50;35.70;;;;;;10046852;28;20103;-76
2021/05/03 18:15:41;;;;;;;5.60;2.00;;;;;;;;;;10045874;28;20049;-77
2021/05/03 18:20:38;;;;;;;4.75;2.00;;;15.70;35.80;;;;;;10013983;28;20478;-77
2021/05/03 18:25:37;;;;;;;3.83;2.17;;;16.70;34.90;;;;;;10045650;28;20053;-76
2021/05/03 18:30:32;;;;;;;5.10;1.80;;;;;;;;;;10046403;28;20069;-75
2021/05/03 18:35:25;;;;;;;4.82;2.00;;;16.40;34.60;;;;;;10062592;28;20053;-75
2021/05/03 18:40:19;;;;;;;3.28;2.25;;;15.70;35.00;;;;;;10061066;28;20496;-77
2021/05/03 18:45:15;;;;;;;3.67;1.92;;;15.80;34.60;;;;;;10059494;28;20060;-76
2021/05/03 18:50:10;;;;;;;5.63;2.20;;;18.20;36.30;;;;;;10042985;28;20416;-77
2021/05/03 18:55:07;;;;;;;5.53;2.28;;;15.50;36.80;;;;;;10042232;28;20136;-79
2021/05/03 19:00:02;;;;;;;2.75;2.17;;;16.70;37.80;;;;;;10060923;28;20558;-77
2021/05/03 19:04:57;;;;;;;3.92;2.30;;;16.80;38.10;;;;;;10041928;28;20087;-76
2021/05/03 19:09:51;;;;;;;4.93;2.25;;;15.20;37.40;;;;;;10060062;28;20544;-77
2021/05/03 19:14:48;;;;;;;3.75;2.33;;;;;;;;;;10042382;28;20047;-77
2021/05/03 19:19:41;;;;;;;6.03;2.60;;;15.20;38.20;;;;;;10041797;28;20047;-77
2021/05/03 19:24:36;;;;;;;3.38;2.35;;;15.90;38.60;;;;;;10058295;28;20471;-76
2021/05/03 19:29:30;;;;;;;3.65;2.45;;;15.70;39.40;;;;;;10059740;28;20049;-76
2021/05/03 19:34:25;;;;;;;7.22;2.80;;;17.10;38.30;;;;;;10040040;28;20085;-75
2021/05/03 19:39:18;;;;;;;6.43;2.83;;;17.90;39.10;;;;;;10039134;28;20053;-75
2021/05/03 19:44:13;;;;;;;4.93;2.67;;;17.80;39.00;;;;;;10055405;28;20100;-76
2021/05/03 19:49:13;;;;;;;7.25;2.53;;;15.30;38.10;;;;;;10056184;28;20052;-75
2021/05/03 19:54:22;;;;;;;;;;;17.30;39.60;;;;;;10040294;28;20484;-76
2021/05/03 20:04:29;;;;;;;5.85;3.22;;;16.40;41.00;;;;;;10041708;28;20462;-74
2021/05/03 20:09:22;;;;;;;4.57;2.50;;;14.70;38.80;;;;;;10040257;28;20427;-75
2021/05/03 20:14:16;;;;;;;8.35;2.60;;;15.50;41.30;;;;;;10040756;28;20065;-77
2021/05/03 20:19:10;;;;;;;4.47;2.83;;;;;;;;;;10039928;28;20041;-75
2021/05/03 20:24:05;;;;;;;5.80;2.60;;;15.30;39.80;;;;;;10024870;28;20124;-76
2021/05/03 20:28:59;;;;;;;4.25;2.75;;;15.10;40.10;;;;;;10057623;28;20460;-75
2021/05/03 20:33:57;;;;;;;5.85;2.40;;;14.40;40.10;;;;;;10022498;28;20068;-74
2021/05/03 20:39:00;;;;;;;5.83;2.23;;;15.60;43.20;;;;;;10058038;28;20057;-76
2021/05/03 20:43:54;;;;;;;6.00;2.47;;;14.90;43.20;;;;;;10042181;28;20106;-76
2021/05/03 20:48:48;;;;;;;3.67;2.13;;;14.60;42.70;;;;;;10055721;28;20087;-76
2021/05/03 20:53:42;;;;;;;5.70;2.65;;;15.50;44.10;;;;;;10055932;28;20046;-74
2021/05/03 20:58:35;;;;;;;9.73;3.03;;;14.70;42.90;;;;;;10055593;28;20041;-75
2021/05/03 21:03:28;;;;;;;4.03;2.42;;;14.90;44.40;;;;;;10055504;28;20046;-75
2021/05/03 21:08:23;;;;;;;6.85;2.30;;;;;;;;;;10055297;28;20060;-74
2021/05/03 21:13:19;;;;;;;5.60;2.47;;;14.50;42.20;;;;;;10038463;28;20064;-74
2021/05/03 21:18:13;;;;;;;4.93;2.53;;;;;;;;;;10055150;28;20107;-76
2021/05/03 21:23:08;;;;;;;7.25;2.42;;;14.60;42.50;;;;;;10037792;28;20053;-75
2021/05/03 21:28:01;;;;;;;4.03;2.40;;;14.80;44.90;;;;;;10037776;28;20054;-74
2021/05/03 21:32:56;;;;;;;8.38;2.75;;;15.30;45.50;;;;;;10055160;28;20068;-76
2021/05/03 21:37:50;;;;;;;5.22;2.78;;;14.20;42.70;;;;;;10037458;28;20437;-75
2021/05/03 21:42:43;;;;;;;5.88;2.28;;;14.30;42.80;;;;;;10055022;28;20400;-75
2021/05/03 21:47:37;;;;;;;2.92;2.10;;;14.70;43.00;;;;;;10054976;28;20041;-77
2021/05/03 21:52:33;;;;;;;4.72;2.40;;;14.40;42.80;;;;;;10034966;28;20049;-77
2021/05/03 21:57:27;;;;;;;4.47;2.33;;;16.00;46.40;;;;;;10020881;28;20492;-75
2021/05/03 22:02:20;;;;;;;3.90;2.47;;;15.60;46.20;;;;;;10036914;28;20526;-76
2021/05/03 22:07:15;;;;;;;4.75;2.42;;;14.20;45.80;;;;;;10036736;28;20046;-74
2021/05/03 22:12:11;;;;;;;4.30;2.60;;;12.00;44.90;;;;;;10054507;28;20179;-75
2021/05/03 22:17:12;;;;;;;3.88;2.55;;;15.10;46.50;;;;;;10054117;28;20037;-75
2021/05/03 22:22:09;;;;;;;2.80;2.50;;;14.60;46.20;;;;;;10041530;28;20050;-75
2021/05/03 22:27:16;;;;;;;6.18;2.72;;;15.80;46.80;;;;;;10060921;28;20050;-74
2021/05/03 22:32:13;;;;;;;5.18;2.40;;;15.30;46.60;;;;;;10042319;28;20124;-76
2021/05/03 22:37:11;;;;;;;4.85;3.30;;;;;;;;;;9983286;28;20058;-75
2021/05/03 23:06:15;;;;;;;4.68;3.05;;;;;;;;;;4683954;28;20050;-74
2021/05/03 23:11:30;;;;;;;4.43;3.10;;;;;;;;;;4683330;28;20075;-73
2021/05/03 23:19:01;;;;;;;5.20;3.60;;;15.80;44.90;;;;;;4657614;28;20062;-73
2021/05/03 23:21:17;;;;;;;4.75;3.25;;;14.20;44.00;;;;;;4676661;28;20089;-72
2021/05/03 23:23:35;;;;;;;3.80;3.25;;;;;;;;;;4681487;28;20081;-75
2021/05/03 23:25:51;;;;;;;6.03;3.90;;;;;;;;;;4682512;28;20067;-73
2021/05/03 23:28:06;;;;;;;4.93;2.95;;;14.20;43.70;;;;;;4663430;28;20788;-72
2021/05/03 23:30:22;;;;;;;5.63;3.17;;;16.60;44.20;;;;;;4682857;28;20109;-73
2021/05/03 23:32:38;;;;;;;8.60;3.38;;;11.90;42.80;;;;;;4682698;28;20032;-73
2021/05/03 23:34:54;;;;;;;3.55;3.00;;;15.70;44.60;;;;;;4684321;28;20552;-72
2021/05/03 23:37:10;;;;;;;6.05;3.63;;;13.10;42.40;;;;;;4664494;28;20055;-73
2021/05/03 23:39:27;;;;;;;6.35;3.85;;;15.30;43.60;;;;;;4684699;28;20051;-78
2021/05/03 23:41:43;;;;;;;6.63;3.72;;;13.90;44.00;;;;;;4682907;28;20046;-76
2021/05/03 23:43:59;;;;;;;6.53;3.75;;;14.90;45.30;;;;;;4666482;28;20596;-76
2021/05/03 23:46:15;;;;;;;7.28;4.00;;;14.50;45.30;;;;;;4682785;28;20060;-77
2021/05/03 23:48:32;;;;;;;7.95;4.05;;;;;;;;;;4666193;28;20044;-77
2021/05/03 23:50:48;;;;;;;6.18;4.00;;;14.40;45.30;;;;;;4682398;28;20051;-76
2021/05/03 23:53:04;;;;;;;6.03;3.85;;;13.00;44.20;;;;;;4684361;28;20065;-77
2021/05/03 23:55:22;;;;;;;8.27;3.75;;;16.10;46.60;;;;;;4682580;28;20097;-77
2021/05/03 23:57:37;;;;;;;6.82;3.90;;;;;;;;;;4666134;28;20040;-77
2021/05/03 23:59:53;;;;;;;8.52;3.75;;;13.20;45.80;;;;;;4664615;28;20052;-78
